Time,TemperatureF,DewpointF,PressureIn,WindDirection,WindDirectionDegrees,WindSpeedMPH,WindSpeedGustMPH,Humidity,HourlyPrecipIn,Conditions,Clouds,dailyrainin,SoftwareType,DateUTC
2013-01-09 00:00:00,24.1,21.3,30.36,SSW,193,0.0,0.0,89,0.00,,,0.01,VWS V13.01,2013-01-09 05:00:00,
2013-01-09 00:03:00,24.1,21.6,30.36,SSW,193,0.0,0.0,90,0.00,,,0.00,VWS V13.01,2013-01-09 05:03:00,
2013-01-09 00:08:00,24.0,21.2,30.36,SSW,193,0.0,0.0,89,0.00,,,0.00,VWS V13.01,2013-01-09 05:08:00,
2013-01-09 00:13:00,23.9,21.1,30.35,SSW,193,0.0,0.0,89,0.00,,,0.00,VWS V13.01,2013-01-09 05:13:00,
2013-01-09 00:18:00,23.8,21.0,30.35,SSW,193,0.0,0.0,89,0.00,,,0.00,VWS V13.01,2013-01-09 05:18:00,
2013-01-09 00:23:00,23.7,21.2,30.35,SSW,193,0.0,0.0,90,0.00,,,0.00,VWS V13.01,2013-01-09 05:23:00,
2013-01-09 00:28:00,23.6,21.1,30.35,SSW,193,0.0,0.0,90,0.00,,,0.00,VWS V13.01,2013-01-09 05:28:00,
2013-01-09 00:30:00,23.6,21.1,30.35,SSW,193,0.0,0.0,90,0.00,,,0.00,VWS V13.01,2013-01-09 05:30:00,
2013-01-09 00:33:00,23.5,21.0,30.35,SSW,193,0.0,0.0,90,0.00,,,0.00,VWS V13.01,2013-01-09 05:33:00,
2013-01-09 00:38:00,23.5,21.0,30.35,SSW,193,0.0,0.0,90,0.00,,,0.00,VWS V13.01,2013-01-09 05:38:00,
2013-01-09 00:43:00,23.4,20.9,30.35,SSW,193,0.0,0.0,90,0.00,,,0.00,VWS V13.01,2013-01-09 05:43:00,
2013-01-09 00:48:00,23.2,20.7,30.35,SSW,193,0.0,0.0,90,0.00,,,0.00,VWS V13.01,2013-01-09 05:48:00,
2013-01-09 00:53:00,23.1,20.6,30.34,SSW,193,0.0,0.0,90,0.00,,,0.00,VWS V13.01,2013-01-09 05:53:00,
2013-01-09 00:58:00,23.1,20.6,30.34,SSW,193,0.0,0.0,90,0.00,,,0.00,VWS V13.01,2013-01-09 05:58:00,
2013-01-09 01:00:00,23.1,20.6,30.34,SSW,193,0.0,0.0,90,0.00,,,0.00,VWS V13.01,2013-01-09 06:00:00,
2013-01-09 01:03:00,23.0,20.5,30.34,SSW,193,0.0,0.0,90,0.00,,,0.00,VWS V13.01,2013-01-09 06:03:00,
2013-01-09 01:08:00,23.0,20.5,30.34,SSW,193,0.0,0.0,90,0.00,,,0.00,VWS V13.01,2013-01-09 06:08:00,
2013-01-09 01:13:00,22.8,20.3,30.34,SSW,193,0.0,0.0,90,0.00,,,0.00,VWS V13.01,2013-01-09 06:13:00,
2013-01-09 01:18:00,22.7,20.2,30.34,SSW,193,0.0,0.0,90,0.00,,,0.00,VWS V13.01,2013-01-09 06:18:00,
2013-01-09 01:23:00,22.5,20.3,30.34,SSW,193,0.0,0.0,91,0.00,,,0.00,VWS V13.01,2013-01-09 06:23:00,
2013-01-09 01:28:00,22.4,19.9,30.34,SSW,193,0.0,0.0,90,0.00,,,0.00,VWS V13.01,2013-01-09 06:28:00,
2013-01-09 01:30:00,22.4,19.9,30.34,SSW,193,0.0,0.0,90,0.00,,,0.00,VWS V13.01,2013-01-09 06:30:00,
2013-01-09 01:33:00,22.4,19.9,30.35,SSW,193,0.0,0.0,90,0.00,,,0.00,VWS V13.01,2013-01-09 06:33:00,
2013-01-09 01:38:00,22.2,19.7,30.35,SSW,193,0.0,0.0,90,0.00,,,0.00,VWS V13.01,2013-01-09 06:38:00,
2013-01-09 01:43:00,22.2,19.7,30.35,SSW,193,0.0,0.0,90,0.00,,,0.00,VWS V13.01,2013-01-09 06:43:00,
2013-01-09 01:48:00,22.2,20.0,30.34,SSW,193,0.0,0.0,91,0.00,,,0.00,VWS V13.01,2013-01-09 06:48:00,
2013-01-09 01:53:00,22.2,20.0,30.34,SSW,193,0.0,0.0,91,0.00,,,0.00,VWS V13.01,2013-01-09 06:53:00,
2013-01-09 01:58:00,22.2,20.0,30.34,SSW,193,0.0,1.0,91,0.00,,,0.00,VWS V13.01,2013-01-09 06:58:00,
2013-01-09 02:00:00,22.2,20.0,30.35,SSW,193,0.0,1.0,91,0.00,,,0.00,VWS V13.01,2013-01-09 07:00:00,
2013-01-09 02:03:00,22.2,20.0,30.34,SSW,193,0.0,0.0,91,0.00,,,0.00,VWS V13.01,2013-01-09 07:03:00,
2013-01-09 02:08:00,22.1,19.9,30.34,SSW,193,0.0,0.0,91,0.00,,,0.00,VWS V13.01,2013-01-09 07:08:00,
2013-01-09 02:13:00,22.0,19.8,30.34,SSW,193,0.0,0.0,91,0.00,,,0.00,VWS V13.01,2013-01-09 07:13:00,
2013-01-09 02:18:00,22.0,19.8,30.35,SSW,193,0.0,0.0,91,0.00,,,0.00,VWS V13.01,2013-01-09 07:18:00,
2013-01-09 02:23:00,21.9,19.7,30.34,SSW,193,0.0,0.0,91,0.00,,,0.00,VWS V13.01,2013-01-09 07:23:00,
2013-01-09 02:28:00,21.9,19.7,30.34,SSW,193,0.0,0.0,91,0.00,,,0.00,VWS V13.01,2013-01-09 07:28:00,
2013-01-09 02:30:00,21.8,19.6,30.34,SSW,193,0.0,0.0,91,0.00,,,0.00,VWS V13.01,2013-01-09 07:30:00,
2013-01-09 02:33:00,21.8,19.6,30.34,SSW,193,0.0,0.0,91,0.00,,,0.00,VWS V13.01,2013-01-09 07:33:00,
2013-01-09 02:38:00,21.7,19.5,30.34,SSW,193,0.0,0.0,91,0.00,,,0.00,VWS V13.01,2013-01-09 07:38:00,
2013-01-09 02:43:00,21.7,19.5,30.34,SSW,193,0.0,0.0,91,0.00,,,0.00,VWS V13.01,2013-01-09 07:43:00,
2013-01-09 02:48:00,21.6,19.4,30.34,SSW,193,0.0,0.0,91,0.00,,,0.00,VWS V13.01,2013-01-09 07:48:00,
2013-01-09 02:53:00,21.6,19.4,30.34,SSW,193,0.0,0.0,91,0.00,,,0.00,VWS V13.01,2013-01-09 07:53:00,
2013-01-09 02:58:00,21.5,19.3,30.34,SSW,193,0.0,0.0,91,0.00,,,0.00,VWS V13.01,2013-01-09 07:58:00,
2013-01-09 03:00:00,21.5,19.3,30.34,SSW,193,0.0,0.0,91,0.00,,,0.00,VWS V13.01,2013-01-09 08:00:00,
2013-01-09 03:03:00,21.4,19.2,30.34,SSW,193,0.0,0.0,91,0.00,,,0.00,VWS V13.01,2013-01-09 08:03:00,
2013-01-09 03:08:00,21.3,19.1,30.33,SSW,193,0.0,0.0,91,0.00,,,0.00,VWS V13.01,2013-01-09 08:08:00,
2013-01-09 03:13:00,21.3,19.1,30.33,SSW,193,0.0,0.0,91,0.00,,,0.00,VWS V13.01,2013-01-09 08:13:00,
2013-01-09 03:18:00,21.2,19.0,30.33,SSW,193,0.0,0.0,91,0.00,,,0.00,VWS V13.01,2013-01-09 08:18:00,
2013-01-09 03:23:00,21.1,18.9,30.33,SSW,193,0.0,0.0,91,0.00,,,0.00,VWS V13.01,2013-01-09 08:23:00,
2013-01-09 03:35:00,21.3,19.1,30.33,SSW,193,0.0,0.0,91,0.00,,,0.00,VWS V13.01,2013-01-09 08:35:00,
2013-01-09 03:40:00,21.1,18.9,30.32,SSW,193,0.0,0.0,91,0.00,,,0.00,VWS V13.01,2013-01-09 08:40:00,
2013-01-09 03:45:00,21.0,18.8,30.32,SSW,193,0.0,0.0,91,0.00,,,0.00,VWS V13.01,2013-01-09 08:45:00,
2013-01-09 03:50:00,21.0,18.8,30.32,SSW,193,0.0,0.0,91,0.00,,,0.00,VWS V13.01,2013-01-09 08:50:00,
2013-01-09 03:55:00,20.9,18.7,30.32,SSW,193,0.0,0.0,91,0.00,,,0.00,VWS V13.01,2013-01-09 08:55:00,
2013-01-09 04:00:00,20.8,18.6,30.32,SSW,193,0.0,0.0,91,0.00,,,0.00,VWS V13.01,2013-01-09 09:00:00,
2013-01-09 04:05:00,20.8,18.6,30.32,SSW,193,0.0,0.0,91,0.00,,,0.00,VWS V13.01,2013-01-09 09:05:00,
2013-01-09 04:10:00,20.8,18.6,30.32,SSW,193,0.0,0.0,91,0.00,,,0.00,VWS V13.01,2013-01-09 09:10:00,
2013-01-09 04:15:00,20.8,18.6,30.32,SSW,193,0.0,0.0,91,0.00,,,0.00,VWS V13.01,2013-01-09 09:15:00,
2013-01-09 04:20:00,20.8,18.9,30.33,SSW,193,0.0,0.0,92,0.00,,,0.00,VWS V13.01,2013-01-09 09:20:00,
2013-01-09 04:25:00,20.7,18.5,30.32,SSW,193,0.0,0.0,91,0.00,,,0.00,VWS V13.01,2013-01-09 09:25:00,
2013-01-09 04:30:00,20.6,18.4,30.32,SSW,193,0.0,0.0,91,0.00,,,0.00,VWS V13.01,2013-01-09 09:30:00,
2013-01-09 04:35:00,20.6,18.4,30.32,SSW,193,0.0,0.0,91,0.00,,,0.00,VWS V13.01,2013-01-09 09:35:00,
2013-01-09 04:40:00,20.5,18.3,30.32,SSW,193,0.0,0.0,91,0.00,,,0.00,VWS V13.01,2013-01-09 09:40:00,
2013-01-09 04:45:00,20.4,18.2,30.33,SSW,193,0.0,0.0,91,0.00,,,0.00,VWS V13.01,2013-01-09 09:45:00,
2013-01-09 04:50:00,20.3,18.4,30.32,SSW,193,0.0,0.0,92,0.00,,,0.00,VWS V13.01,2013-01-09 09:50:00,
2013-01-09 04:55:00,20.2,18.0,30.32,SSW,193,0.0,0.0,91,0.00,,,0.00,VWS V13.01,2013-01-09 09:55:00,
2013-01-09 05:00:00,20.1,17.9,30.32,SSW,193,0.0,0.0,91,0.00,,,0.00,VWS V13.01,2013-01-09 10:00:00,
2013-01-09 05:05:00,20.1,17.9,30.32,SSW,193,0.0,0.0,91,0.00,,,0.00,VWS V13.01,2013-01-09 10:05:00,
2013-01-09 05:10:00,20.1,18.1,30.32,SSW,193,0.0,0.0,92,0.00,,,0.00,VWS V13.01,2013-01-09 10:10:00,
2013-01-09 05:15:00,20.1,18.1,30.32,SSW,193,0.0,0.0,92,0.00,,,0.00,VWS V13.01,2013-01-09 10:15:00,
2013-01-09 05:20:00,20.1,18.1,30.32,SSW,193,0.0,0.0,92,0.00,,,0.00,VWS V13.01,2013-01-09 10:20:00,
2013-01-09 05:25:00,20.0,18.0,30.31,SSW,193,0.0,0.0,92,0.00,,,0.00,VWS V13.01,2013-01-09 10:25:00,
2013-01-09 05:30:00,20.0,18.0,30.31,SSW,193,0.0,0.0,92,0.00,,,0.00,VWS V13.01,2013-01-09 10:30:00,
2013-01-09 05:35:00,20.0,18.0,30.31,SSW,193,0.0,0.0,92,0.00,,,0.00,VWS V13.01,2013-01-09 10:35:00,
2013-01-09 05:40:00,20.0,18.0,30.31,SSW,193,0.0,0.0,92,0.00,,,0.00,VWS V13.01,2013-01-09 10:40:00,
2013-01-09 05:45:00,20.1,18.1,30.31,SSW,193,0.0,0.0,92,0.00,,,0.00,VWS V13.01,2013-01-09 10:45:00,
2013-01-09 05:50:00,20.1,18.1,30.31,SSW,193,0.0,0.0,92,0.00,,,0.00,VWS V13.01,2013-01-09 10:50:00,
2013-01-09 05:55:00,20.0,18.0,30.31,SSW,193,0.0,0.0,92,0.00,,,0.00,VWS V13.01,2013-01-09 10:55:00,
2013-01-09 06:00:00,20.0,18.0,30.31,SSW,193,0.0,0.0,92,0.00,,,0.00,VWS V13.01,2013-01-09 11:00:00,
2013-01-09 06:05:00,19.9,18.0,30.31,SSW,193,0.0,0.0,92,0.00,,,0.00,VWS V13.01,2013-01-09 11:05:00,
2013-01-09 06:10:00,19.7,17.8,30.31,SSW,193,0.0,0.0,92,0.00,,,0.00,VWS V13.01,2013-01-09 11:10:00,
2013-01-09 06:15:00,19.7,17.8,30.32,SSW,193,0.0,0.0,92,0.00,,,0.00,VWS V13.01,2013-01-09 11:15:00,
2013-01-09 06:20:00,19.8,17.9,30.32,SSW,193,0.0,0.0,92,0.00,,,0.00,VWS V13.01,2013-01-09 11:20:00,
2013-01-09 06:25:00,19.9,18.0,30.32,SSW,193,0.0,0.0,92,0.00,,,0.00,VWS V13.01,2013-01-09 11:25:00,
2013-01-09 06:30:00,19.8,17.9,30.32,SSW,193,0.0,0.0,92,0.00,,,0.00,VWS V13.01,2013-01-09 11:30:00,
2013-01-09 06:35:00,19.7,17.8,30.32,SSW,193,0.0,0.0,92,0.00,,,0.00,VWS V13.01,2013-01-09 11:35:00,
2013-01-09 06:40:00,19.7,17.8,30.31,SSW,193,0.0,0.0,92,0.00,,,0.00,VWS V13.01,2013-01-09 11:40:00,
2013-01-09 06:45:00,19.6,17.7,30.32,SSW,193,0.0,0.0,92,0.00,,,0.00,VWS V13.01,2013-01-09 11:45:00,
2013-01-09 06:50:00,19.6,17.7,30.32,SSW,193,0.0,0.0,92,0.00,,,0.00,VWS V13.01,2013-01-09 11:50:00,
2013-01-09 06:55:00,19.5,17.6,30.32,SSW,193,0.0,0.0,92,0.00,,,0.00,VWS V13.01,2013-01-09 11:55:00,
2013-01-09 07:01:00,19.4,17.5,30.32,SSW,193,0.0,0.0,92,0.00,,,0.00,VWS V13.01,2013-01-09 12:01:00,
2013-01-09 07:06:00,19.4,17.5,30.32,SSW,193,0.0,0.0,92,0.00,,,0.00,VWS V13.01,2013-01-09 12:06:00,
2013-01-09 07:11:00,19.3,17.4,30.32,SSW,193,0.0,0.0,92,0.00,,,0.00,VWS V13.01,2013-01-09 12:11:00,
2013-01-09 07:16:00,19.4,17.5,30.33,SSW,193,0.0,0.0,92,0.00,,,0.00,VWS V13.01,2013-01-09 12:16:00,
2013-01-09 07:21:00,19.5,17.6,30.33,SSW,193,0.0,0.0,92,0.00,,,0.00,VWS V13.01,2013-01-09 12:21:00,
2013-01-09 07:26:00,19.5,17.6,30.33,SSW,193,0.0,0.0,92,0.00,,,0.00,VWS V13.01,2013-01-09 12:26:00,
2013-01-09 07:31:00,19.5,17.6,30.33,SSW,193,0.0,0.0,92,0.00,,,0.00,VWS V13.01,2013-01-09 12:31:00,
2013-01-09 07:36:00,19.5,17.6,30.32,SSW,193,0.0,0.0,92,0.00,,,0.00,VWS V13.01,2013-01-09 12:36:00,
2013-01-09 07:41:00,19.5,17.8,30.32,SSW,193,0.0,0.0,93,0.00,,,0.00,VWS V13.01,2013-01-09 12:41:00,
2013-01-09 07:46:00,19.5,17.6,30.32,SSW,193,0.0,0.0,92,0.00,,,0.00,VWS V13.01,2013-01-09 12:46:00,
2013-01-09 07:51:00,19.6,17.7,30.32,SSW,193,0.0,0.0,92,0.00,,,0.00,VWS V13.01,2013-01-09 12:51:00,
2013-01-09 07:56:00,19.7,18.0,30.32,SSW,193,0.0,0.0,93,0.00,,,0.00,VWS V13.01,2013-01-09 12:56:00,
2013-01-09 08:01:00,19.7,17.8,30.32,SSW,193,0.0,0.0,92,0.00,,,0.00,VWS V13.01,2013-01-09 13:01:00,
2013-01-09 08:06:00,19.8,17.9,30.32,SSW,193,0.0,0.0,92,0.00,,,0.00,VWS V13.01,2013-01-09 13:06:00,
2013-01-09 08:11:00,20.0,18.3,30.32,SSW,193,0.0,0.0,93,0.00,,,0.00,VWS V13.01,2013-01-09 13:11:00,
2013-01-09 08:16:00,20.1,18.4,30.32,SSW,193,0.0,0.0,93,0.00,,,0.00,VWS V13.01,2013-01-09 13:16:00,
2013-01-09 08:21:00,20.5,18.8,30.31,SSW,193,0.0,0.0,93,0.00,,,0.00,VWS V13.01,2013-01-09 13:21:00,
2013-01-09 08:26:00,20.8,19.1,30.31,SSW,193,0.0,0.0,93,0.00,,,0.00,VWS V13.01,2013-01-09 13:26:00,
2013-01-09 08:31:00,21.1,19.4,30.30,SSW,193,0.0,0.0,93,0.00,,,0.00,VWS V13.01,2013-01-09 13:31:00,
2013-01-09 08:36:00,21.5,20.0,30.31,SSW,193,0.0,0.0,94,0.00,,,0.00,VWS V13.01,2013-01-09 13:36:00,
2013-01-09 08:41:00,21.9,20.4,30.31,SSW,193,0.0,0.0,94,0.00,,,0.00,VWS V13.01,2013-01-09 13:41:00,
2013-01-09 08:46:00,22.3,20.8,30.31,SSW,193,0.0,0.0,94,0.00,,,0.00,VWS V13.01,2013-01-09 13:46:00,
2013-01-09 08:51:00,22.7,21.2,30.31,SSW,193,0.0,1.0,94,0.00,,,0.00,VWS V13.01,2013-01-09 13:51:00,
2013-01-09 08:56:00,23.1,21.6,30.30,SSW,193,0.0,1.0,94,0.00,,,0.00,VWS V13.01,2013-01-09 13:56:00,
2013-01-09 09:01:00,23.5,22.0,30.30,SSW,193,1.0,2.0,94,0.00,,,0.00,VWS V13.01,2013-01-09 14:01:00,
2013-01-09 09:06:00,23.8,22.3,30.27,SSE,163,2.0,3.0,94,0.00,,,0.00,VWS V13.01,2013-01-09 14:06:00,
2013-01-09 09:11:00,24.1,22.6,30.29,NNE,19,0.0,5.0,94,0.00,,,0.00,VWS V13.01,2013-01-09 14:11:00,
2013-01-09 09:16:00,24.4,22.9,30.28,NNE,13,2.0,5.0,94,0.00,,,0.00,VWS V13.01,2013-01-09 14:16:00,
2013-01-09 09:21:00,24.7,23.5,30.31,NNE,12,0.0,5.0,95,0.00,,,0.00,VWS V13.01,2013-01-09 14:21:00,
2013-01-09 09:26:00,25.0,23.8,30.31,East,99,1.0,5.0,95,0.00,,,0.00,VWS V13.01,2013-01-09 14:26:00,
2013-01-09 09:31:00,25.3,23.8,30.31,ESE,113,1.0,1.0,94,0.00,,,0.00,VWS V13.01,2013-01-09 14:31:00,
2013-01-09 09:36:00,25.7,24.5,30.31,ESE,115,0.0,2.0,95,0.00,,,0.00,VWS V13.01,2013-01-09 14:36:00,
2013-01-09 09:41:00,26.0,24.8,30.31,SE,124,1.0,4.0,95,0.00,,,0.00,VWS V13.01,2013-01-09 14:41:00,
2013-01-09 09:46:00,26.3,25.1,30.31,SE,124,0.0,4.0,95,0.00,,,0.00,VWS V13.01,2013-01-09 14:46:00,
2013-01-09 09:51:00,26.6,25.1,30.30,ESE,123,0.0,4.0,94,0.00,,,0.00,VWS V13.01,2013-01-09 14:51:00,
2013-01-09 09:56:00,26.8,25.3,30.29,ESE,123,0.0,4.0,94,0.00,,,0.00,VWS V13.01,2013-01-09 14:56:00,
2013-01-09 10:01:00,27.1,25.6,30.30,ESE,120,0.0,1.0,94,0.00,,,0.00,VWS V13.01,2013-01-09 15:01:00,
2013-01-09 10:06:00,27.3,25.8,30.31,SE,127,2.0,4.0,94,0.00,,,0.00,VWS V13.01,2013-01-09 15:06:00,
2013-01-09 10:11:00,27.5,26.0,30.30,SE,128,0.0,4.0,94,0.00,,,0.00,VWS V13.01,2013-01-09 15:11:00,
2013-01-09 10:16:00,27.9,26.4,30.30,SE,127,0.0,4.0,94,0.00,,,0.00,VWS V13.01,2013-01-09 15:16:00,
2013-01-09 10:21:00,28.3,26.8,30.30,SE,126,2.0,4.0,94,0.00,,,0.00,VWS V13.01,2013-01-09 15:21:00,
2013-01-09 10:26:00,28.5,26.7,30.30,SE,127,2.0,4.0,93,0.00,,,0.00,VWS V13.01,2013-01-09 15:26:00,
2013-01-09 10:31:00,28.5,26.5,30.29,SE,127,1.0,2.0,92,0.00,,,0.00,VWS V13.01,2013-01-09 15:31:00,
2013-01-09 10:36:00,28.8,26.8,30.30,SE,127,1.0,3.0,92,0.00,,,0.00,VWS V13.01,2013-01-09 15:36:00,
2013-01-09 10:41:00,29.2,27.2,30.29,SE,128,4.0,4.0,92,0.00,,,0.00,VWS V13.01,2013-01-09 15:41:00,
2013-01-09 10:46:00,29.4,27.1,30.28,SE,128,0.0,4.0,91,0.00,,,0.00,VWS V13.01,2013-01-09 15:46:00,
2013-01-09 10:51:00,29.7,27.4,30.28,SE,128,0.0,4.0,91,0.00,,,0.00,VWS V13.01,2013-01-09 15:51:00,
2013-01-09 10:56:00,30.0,27.4,30.28,SE,128,0.0,4.0,90,0.00,,,0.00,VWS V13.01,2013-01-09 15:56:00,
2013-01-09 11:01:00,30.3,27.7,30.25,SE,128,0.0,0.0,90,0.00,,,0.00,VWS V13.01,2013-01-09 16:01:00,
2013-01-09 11:06:00,30.6,28.0,30.26,SE,128,0.0,0.0,90,0.00,,,0.00,VWS V13.01,2013-01-09 16:06:00,
2013-01-09 11:11:00,30.9,28.0,30.26,SE,128,0.0,0.0,89,0.00,,,0.00,VWS V13.01,2013-01-09 16:11:00,
2013-01-09 11:16:00,31.2,28.3,30.26,SE,127,1.0,1.0,89,0.00,,,0.00,VWS V13.01,2013-01-09 16:16:00,
2013-01-09 11:21:00,31.3,28.2,30.26,SE,128,0.0,2.0,88,0.00,,,0.00,VWS V13.01,2013-01-09 16:21:00,
2013-01-09 11:26:00,31.6,28.2,30.25,SE,129,0.0,3.0,87,0.00,,,0.00,VWS V13.01,2013-01-09 16:26:00,
2013-01-09 11:31:00,31.8,28.4,30.25,SE,129,0.0,1.0,87,0.00,,,0.00,VWS V13.01,2013-01-09 16:31:00,
2013-01-09 11:36:00,31.8,27.8,30.26,SE,129,1.0,2.0,85,0.00,,,0.00,VWS V13.01,2013-01-09 16:36:00,
2013-01-09 11:41:00,31.7,27.4,30.27,SE,130,1.0,4.0,84,0.00,,,0.00,VWS V13.01,2013-01-09 16:41:00,
2013-01-09 11:46:00,31.7,27.4,30.27,SE,130,4.0,5.0,84,0.00,,,0.00,VWS V13.01,2013-01-09 16:46:00,
2013-01-09 11:51:00,31.8,27.5,30.27,SE,130,1.0,5.0,84,0.00,,,0.00,VWS V13.01,2013-01-09 16:51:00,
2013-01-09 11:56:00,31.9,27.9,30.26,SE,130,2.0,5.0,85,0.00,,,0.00,VWS V13.01,2013-01-09 16:56:00,
2013-01-09 12:01:00,32.1,28.1,30.26,SE,130,0.0,2.0,85,0.00,,,0.00,VWS V13.01,2013-01-09 17:01:00,
2013-01-09 12:06:00,32.2,28.2,30.26,SE,129,0.0,2.0,85,0.00,,,0.00,VWS V13.01,2013-01-09 17:06:00,
2013-01-09 12:11:00,32.3,28.0,30.26,SE,128,0.0,2.0,84,0.00,,,0.00,VWS V13.01,2013-01-09 17:11:00,
2013-01-09 12:16:00,32.4,28.1,30.25,SE,129,0.0,2.0,84,0.00,,,0.00,VWS V13.01,2013-01-09 17:16:00,
2013-01-09 12:21:00,32.5,28.5,30.24,SE,130,0.0,2.0,85,0.00,,,0.00,VWS V13.01,2013-01-09 17:21:00,
2013-01-09 12:26:00,32.6,28.6,30.23,SE,129,0.0,2.0,85,0.00,,,0.00,VWS V13.01,2013-01-09 17:26:00,
2013-01-09 12:31:00,32.7,28.4,30.22,SE,129,0.0,2.0,84,0.00,,,0.00,VWS V13.01,2013-01-09 17:31:00,
2013-01-09 12:36:00,32.7,28.7,30.20,SE,130,0.0,2.0,85,0.00,,,0.00,VWS V13.01,2013-01-09 17:36:00,
2013-01-09 12:41:00,32.7,28.7,30.20,SE,130,0.0,2.0,85,0.00,,,0.00,VWS V13.01,2013-01-09 17:41:00,
2013-01-09 12:46:00,32.7,28.7,30.19,SE,130,0.0,3.0,85,0.00,,,0.00,VWS V13.01,2013-01-09 17:46:00,
2013-01-09 12:51:00,32.7,28.7,30.19,SE,130,0.0,3.0,85,0.00,,,0.00,VWS V13.01,2013-01-09 17:51:00,
2013-01-09 12:56:00,32.8,29.1,30.17,SE,130,0.0,3.0,86,0.00,,,0.00,VWS V13.01,2013-01-09 17:56:00,
2013-01-09 13:01:00,33.0,29.3,30.16,SE,130,0.0,0.0,86,0.00,,,0.00,VWS V13.01,2013-01-09 18:01:00,
2013-01-09 13:06:00,33.1,29.4,30.16,SE,130,0.0,0.0,86,0.00,,,0.00,VWS V13.01,2013-01-09 18:06:00,
2013-01-09 13:11:00,33.2,29.5,30.15,SE,130,0.0,0.0,86,0.00,,,0.00,VWS V13.01,2013-01-09 18:11:00,
2013-01-09 13:16:00,33.2,29.5,30.14,SE,130,0.0,2.0,86,0.00,,,0.00,VWS V13.01,2013-01-09 18:16:00,
2013-01-09 13:21:00,33.1,29.4,30.15,SE,130,0.0,3.0,86,0.00,,,0.00,VWS V13.01,2013-01-09 18:21:00,
2013-01-09 13:26:00,33.1,29.4,30.15,SE,130,0.0,3.0,86,0.00,,,0.00,VWS V13.01,2013-01-09 18:26:00,
2013-01-09 13:31:00,33.1,29.7,30.14,SE,130,0.0,0.0,87,0.00,,,0.00,VWS V13.01,2013-01-09 18:31:00,
2013-01-09 13:36:00,33.2,29.8,30.14,SE,129,0.0,0.0,87,0.00,,,0.00,VWS V13.01,2013-01-09 18:36:00,
2013-01-09 13:41:00,33.2,29.8,30.15,SE,129,1.0,1.0,87,0.00,,,0.00,VWS V13.01,2013-01-09 18:41:00,
2013-01-09 13:42:00,33.2,29.8,30.14,SE,129,0.0,2.0,87,0.00,,,0.00,VWS V13.01,2013-01-09 18:42:00,
2013-01-09 13:44:00,33.3,29.9,30.14,SE,129,0.0,2.0,87,0.00,,,0.00,VWS V13.01,2013-01-09 18:44:00,
2013-01-09 13:48:00,33.3,29.9,30.15,SE,129,0.0,2.0,87,0.00,,,0.00,VWS V13.01,2013-01-09 18:48:00,
2013-01-09 13:49:00,33.3,29.9,30.15,SE,129,0.0,2.0,87,0.00,,,0.00,VWS V13.01,2013-01-09 18:49:00,
2013-01-09 13:54:00,33.3,29.9,30.14,SE,129,0.0,2.0,87,0.00,,,0.00,VWS V13.01,2013-01-09 18:54:00,
2013-01-09 13:59:00,33.4,30.0,30.14,SE,127,0.0,2.0,87,0.00,,,0.00,VWS V13.01,2013-01-09 18:59:00,
2013-01-09 14:04:00,33.4,30.0,30.14,SE,127,0.0,2.0,87,0.00,,,0.00,VWS V13.01,2013-01-09 19:04:00,
2013-01-09 14:09:00,33.5,30.0,30.14,SE,126,0.0,2.0,87,0.00,,,0.00,VWS V13.01,2013-01-09 19:09:00,
2013-01-09 14:14:00,33.5,30.0,30.15,SE,128,1.0,2.0,87,0.00,,,0.00,VWS V13.01,2013-01-09 19:14:00,
2013-01-09 14:19:00,33.6,30.1,30.14,SE,127,0.0,2.0,87,0.00,,,0.00,VWS V13.01,2013-01-09 19:19:00,
2013-01-09 14:24:00,33.7,30.2,30.15,SE,127,0.0,3.0,87,0.00,,,0.00,VWS V13.01,2013-01-09 19:24:00,
2013-01-09 14:29:00,33.8,30.4,30.16,SE,126,0.0,3.0,87,0.00,,,0.00,VWS V13.01,2013-01-09 19:29:00,
2013-01-09 14:34:00,34.0,30.5,30.15,SE,124,2.0,3.0,87,0.00,,,0.00,VWS V13.01,2013-01-09 19:34:00,
2013-01-09 14:39:00,34.2,30.7,30.15,SE,124,0.0,3.0,87,0.00,,,0.00,VWS V13.01,2013-01-09 19:39:00,
2013-01-09 14:44:00,34.4,30.9,30.16,SE,125,0.0,3.0,87,0.00,,,0.00,VWS V13.01,2013-01-09 19:44:00,
2013-01-09 14:49:00,34.7,31.2,30.15,SE,125,1.0,3.0,87,0.00,,,0.00,VWS V13.01,2013-01-09 19:49:00,
2013-01-09 14:54:00,34.9,31.1,30.15,SE,125,0.0,3.0,86,0.00,,,0.00,VWS V13.01,2013-01-09 19:54:00,
2013-01-09 14:59:00,35.2,31.4,30.14,SE,125,0.0,3.0,86,0.00,,,0.00,VWS V13.01,2013-01-09 19:59:00,
2013-01-09 15:04:00,35.4,31.6,30.15,SE,125,2.0,3.0,86,0.00,,,0.00,VWS V13.01,2013-01-09 20:04:00,
2013-01-09 15:09:00,35.7,31.6,30.15,SE,127,1.0,4.0,85,0.00,,,0.00,VWS V13.01,2013-01-09 20:09:00,
2013-01-09 15:14:00,35.9,31.5,30.15,SE,126,2.0,5.0,84,0.00,,,0.00,VWS V13.01,2013-01-09 20:14:00,
2013-01-09 15:19:00,36.3,31.9,30.15,SE,130,0.0,5.0,84,0.00,,,0.00,VWS V13.01,2013-01-09 20:19:00,
2013-01-09 15:24:00,36.7,32.0,30.15,ESE,114,1.0,5.0,83,0.00,,,0.00,VWS V13.01,2013-01-09 20:24:00,
2013-01-09 15:29:00,37.1,32.1,30.14,SE,127,2.0,5.0,82,0.00,,,0.00,VWS V13.01,2013-01-09 20:29:00,
2013-01-09 15:34:00,37.5,32.5,30.14,SE,124,0.0,2.0,82,0.00,,,0.00,VWS V13.01,2013-01-09 20:34:00,
2013-01-09 15:39:00,37.9,32.6,30.14,ESE,122,0.0,5.0,81,0.00,,,0.00,VWS V13.01,2013-01-09 20:39:00,
2013-01-09 15:44:00,38.4,33.1,30.14,ESE,122,0.0,5.0,81,0.00,,,0.00,VWS V13.01,2013-01-09 20:44:00,
2013-01-09 15:49:00,38.7,33.4,30.15,ESE,123,0.0,5.0,81,0.00,,,0.00,VWS V13.01,2013-01-09 20:49:00,
2013-01-09 15:54:00,39.2,33.2,30.15,ESE,123,4.0,5.0,79,0.00,,,0.00,VWS V13.01,2013-01-09 20:54:00,
2013-01-09 15:59:00,39.5,33.5,30.15,ESE,123,0.0,5.0,79,0.00,,,0.00,VWS V13.01,2013-01-09 20:59:00,
2013-01-09 16:04:00,39.7,33.4,30.15,ESE,123,1.0,3.0,78,0.00,,,0.00,VWS V13.01,2013-01-09 21:04:00,
2013-01-09 16:09:00,39.7,33.4,30.15,ESE,120,0.0,4.0,78,0.00,,,0.00,VWS V13.01,2013-01-09 21:09:00,
2013-01-09 16:14:00,39.6,33.3,30.15,ESE,120,1.0,4.0,78,0.00,,,0.00,VWS V13.01,2013-01-09 21:14:00,
2013-01-09 16:19:00,39.5,33.5,30.15,ESE,121,2.0,4.0,79,0.00,,,0.00,VWS V13.01,2013-01-09 21:19:00,
2013-01-09 16:24:00,39.2,33.2,30.14,SE,127,0.0,4.0,79,0.00,,,0.00,VWS V13.01,2013-01-09 21:24:00,
2013-01-09 16:29:00,38.9,33.0,30.14,SE,129,0.0,4.0,79,0.00,,,0.00,VWS V13.01,2013-01-09 21:29:00,
2013-01-09 16:34:00,38.4,32.5,30.14,SE,130,0.0,0.0,79,0.00,,,0.00,VWS V13.01,2013-01-09 21:34:00,
2013-01-09 16:39:00,38.0,32.4,30.14,SE,130,0.0,0.0,80,0.00,,,0.00,VWS V13.01,2013-01-09 21:39:00,
2013-01-09 16:44:00,37.6,32.0,30.14,SE,130,0.0,0.0,80,0.00,,,0.00,VWS V13.01,2013-01-09 21:44:00,
2013-01-09 16:49:00,37.1,31.5,30.14,SE,130,0.0,0.0,80,0.00,,,0.00,VWS V13.01,2013-01-09 21:49:00,
2013-01-09 16:54:00,36.6,31.3,30.14,ESE,121,0.0,0.0,81,0.00,,,0.00,VWS V13.01,2013-01-09 21:54:00,
2013-01-09 16:59:00,36.2,31.2,30.14,SE,130,0.0,0.0,82,0.00,,,0.00,VWS V13.01,2013-01-09 21:59:00,
2013-01-09 17:04:00,35.7,30.8,30.14,SE,130,0.0,0.0,82,0.00,,,0.00,VWS V13.01,2013-01-09 22:04:00,
2013-01-09 17:09:00,35.3,30.7,30.14,SE,130,0.0,0.0,83,0.00,,,0.00,VWS V13.01,2013-01-09 22:09:00,
2013-01-09 17:14:00,34.8,30.5,30.15,SE,130,0.0,0.0,84,0.00,,,0.00,VWS V13.01,2013-01-09 22:14:00,
2013-01-09 17:19:00,34.5,30.2,30.15,SE,129,0.0,0.0,84,0.00,,,0.00,VWS V13.01,2013-01-09 22:19:00,
2013-01-09 17:24:00,34.1,29.8,30.14,SE,126,0.0,0.0,84,0.00,,,0.00,VWS V13.01,2013-01-09 22:24:00,
2013-01-09 17:29:00,33.7,29.7,30.15,SE,127,0.0,0.0,85,0.00,,,0.00,VWS V13.01,2013-01-09 22:29:00,
2013-01-09 17:34:00,33.5,29.5,30.15,SE,127,0.0,0.0,85,0.00,,,0.00,VWS V13.01,2013-01-09 22:34:00,
2013-01-09 17:39:00,33.1,29.1,30.15,SE,129,0.0,0.0,85,0.00,,,0.00,VWS V13.01,2013-01-09 22:39:00,
2013-01-09 17:44:00,32.8,29.1,30.16,SE,128,0.0,0.0,86,0.00,,,0.00,VWS V13.01,2013-01-09 22:44:00,
2013-01-09 17:49:00,32.5,28.8,30.16,SE,127,0.0,0.0,86,0.00,,,0.00,VWS V13.01,2013-01-09 22:49:00,
2013-01-09 17:54:00,32.2,28.5,30.16,SE,126,0.0,0.0,86,0.00,,,0.00,VWS V13.01,2013-01-09 22:54:00,
2013-01-09 17:59:00,32.0,28.3,30.15,SE,130,0.0,0.0,86,0.00,,,0.00,VWS V13.01,2013-01-09 22:59:00,
2013-01-09 18:04:00,31.8,28.4,30.16,SE,130,0.0,1.0,87,0.00,,,0.00,VWS V13.01,2013-01-09 23:04:00,
2013-01-09 18:09:00,31.7,28.6,30.17,SE,130,0.0,1.0,88,0.00,,,0.00,VWS V13.01,2013-01-09 23:09:00,
2013-01-09 18:14:00,31.5,28.4,30.17,SE,130,0.0,1.0,88,0.00,,,0.00,VWS V13.01,2013-01-09 23:14:00,
2013-01-09 18:19:00,31.3,28.2,30.18,SE,130,0.0,1.0,88,0.00,,,0.00,VWS V13.01,2013-01-09 23:19:00,
2013-01-09 18:24:00,31.2,28.3,30.19,SE,130,1.0,2.0,89,0.00,,,0.00,VWS V13.01,2013-01-09 23:24:00,
2013-01-09 18:29:00,31.2,28.3,30.19,SE,130,0.0,2.0,89,0.00,,,0.00,VWS V13.01,2013-01-09 23:29:00,
2013-01-09 18:34:00,31.3,29.0,30.19,SE,130,1.0,2.0,91,0.00,,,0.00,VWS V13.01,2013-01-09 23:34:00,
2013-01-09 18:39:00,31.2,28.6,30.19,SE,130,0.0,2.0,90,0.00,,,0.00,VWS V13.01,2013-01-09 23:39:00,
2013-01-09 18:44:00,31.3,29.0,30.19,SE,130,0.0,2.0,91,0.00,,,0.00,VWS V13.01,2013-01-09 23:44:00,
2013-01-09 18:49:00,31.4,29.1,30.19,SE,130,0.0,2.0,91,0.00,,,0.00,VWS V13.01,2013-01-09 23:49:00,
2013-01-09 18:54:00,31.6,29.5,30.19,SE,130,0.0,3.0,92,0.00,,,0.00,VWS V13.01,2013-01-09 23:54:00,
2013-01-09 18:59:00,31.7,29.6,30.19,SE,130,0.0,3.0,92,0.00,,,0.00,VWS V13.01,2013-01-09 23:59:00,
2013-01-09 19:04:00,31.9,30.1,30.20,SE,130,2.0,4.0,93,0.00,,,0.00,VWS V13.01,2013-01-10 00:04:00,
2013-01-09 19:09:00,32.5,31.0,30.19,SE,125,1.0,4.0,94,0.00,,,0.00,VWS V13.01,2013-01-10 00:09:00,
2013-01-09 19:14:00,33.0,31.5,30.20,SE,126,1.0,4.0,94,0.00,,,0.00,VWS V13.01,2013-01-10 00:14:00,
2013-01-09 19:19:00,33.4,31.9,30.20,SE,127,2.0,5.0,94,0.00,,,0.00,VWS V13.01,2013-01-10 00:19:00,
2013-01-09 19:24:00,33.9,32.4,30.20,SSW,203,3.0,6.0,94,0.00,,,0.00,VWS V13.01,2013-01-10 00:24:00,
2013-01-09 19:29:00,34.3,32.5,30.19,South,188,4.0,6.0,93,0.00,,,0.00,VWS V13.01,2013-01-10 00:29:00,
2013-01-09 19:34:00,34.6,32.8,30.20,South,183,4.0,6.0,93,0.00,,,0.00,VWS V13.01,2013-01-10 00:34:00,
2013-01-09 19:39:00,34.7,32.6,30.20,South,190,0.0,6.0,92,0.00,,,0.00,VWS V13.01,2013-01-10 00:39:00,
2013-01-09 19:44:00,34.7,32.6,30.20,South,179,1.0,6.0,92,0.00,,,0.00,VWS V13.01,2013-01-10 00:44:00,
2013-01-09 19:49:00,34.8,32.5,30.20,South,179,1.0,6.0,91,0.00,,,0.00,VWS V13.01,2013-01-10 00:49:00,
2013-01-09 19:54:00,34.8,32.5,30.20,South,180,0.0,6.0,91,0.00,,,0.00,VWS V13.01,2013-01-10 00:54:00,
2013-01-09 19:59:00,34.8,32.5,30.20,South,180,0.0,6.0,91,0.00,,,0.00,VWS V13.01,2013-01-10 00:59:00,
2013-01-09 20:04:00,34.7,32.3,30.20,South,180,0.0,2.0,91,0.00,,,0.00,VWS V13.01,2013-01-10 01:04:00,
2013-01-09 20:09:00,34.6,32.2,30.19,South,180,0.0,2.0,91,0.00,,,0.00,VWS V13.01,2013-01-10 01:09:00,
2013-01-09 20:14:00,34.5,32.2,30.19,South,180,0.0,3.0,91,0.00,,,0.00,VWS V13.01,2013-01-10 01:14:00,
2013-01-09 20:19:00,34.4,32.0,30.19,South,180,0.0,3.0,91,0.00,,,0.00,VWS V13.01,2013-01-10 01:19:00,
2013-01-09 20:24:00,34.2,31.9,30.19,South,180,0.0,3.0,91,0.00,,,0.00,VWS V13.01,2013-01-10 01:24:00,
2013-01-09 20:29:00,34.2,31.9,30.19,South,180,2.0,4.0,91,0.00,,,0.00,VWS V13.01,2013-01-10 01:29:00,
2013-01-09 20:34:00,34.2,31.9,30.19,South,174,2.0,3.0,91,0.00,,,0.00,VWS V13.01,2013-01-10 01:34:00,
2013-01-09 20:39:00,34.4,32.3,30.20,South,171,1.0,3.0,92,0.00,,,0.00,VWS V13.01,2013-01-10 01:39:00,
2013-01-09 20:44:00,34.6,32.2,30.20,South,177,2.0,3.0,91,0.00,,,0.00,VWS V13.01,2013-01-10 01:44:00,
2013-01-09 20:49:00,34.7,32.3,30.20,South,173,0.0,3.0,91,0.00,,,0.00,VWS V13.01,2013-01-10 01:49:00,
2013-01-09 20:54:00,34.9,32.5,30.21,South,176,2.0,4.0,91,0.00,,,0.00,VWS V13.01,2013-01-10 01:54:00,
2013-01-09 20:59:00,35.1,32.7,30.22,South,177,0.0,4.0,91,0.00,,,0.00,VWS V13.01,2013-01-10 01:59:00,
2013-01-09 21:04:00,35.5,32.9,30.22,SW,217,0.0,4.0,90,0.00,,,0.00,VWS V13.01,2013-01-10 02:04:00,
2013-01-09 21:09:00,35.7,33.1,30.21,SSW,199,0.0,4.0,90,0.00,,,0.00,VWS V13.01,2013-01-10 02:09:00,
2013-01-09 21:14:00,35.9,33.0,30.21,SSW,200,0.0,4.0,89,0.00,,,0.00,VWS V13.01,2013-01-10 02:14:00,
2013-01-09 21:19:00,35.9,33.0,30.22,WSW,238,0.0,4.0,89,0.00,,,0.00,VWS V13.01,2013-01-10 02:19:00,
2013-01-09 21:24:00,35.7,32.5,30.21,WSW,238,0.0,4.0,88,0.00,,,0.00,VWS V13.01,2013-01-10 02:24:00,
2013-01-09 21:29:00,35.5,32.3,30.22,WSW,237,0.0,4.0,88,0.00,,,0.00,VWS V13.01,2013-01-10 02:29:00,
2013-01-09 21:34:00,35.4,32.2,30.22,WSW,237,0.0,1.0,88,0.00,,,0.00,VWS V13.01,2013-01-10 02:34:00,
2013-01-09 21:39:00,35.4,32.5,30.22,SSW,204,1.0,3.0,89,0.00,,,0.00,VWS V13.01,2013-01-10 02:39:00,
2013-01-09 21:44:00,35.7,32.8,30.22,SSW,197,1.0,5.0,89,0.00,,,0.00,VWS V13.01,2013-01-10 02:44:00,
2013-01-09 21:49:00,35.9,32.7,30.22,SSW,200,0.0,5.0,88,0.00,,,0.00,VWS V13.01,2013-01-10 02:49:00,
2013-01-09 21:54:00,36.0,32.5,30.23,SSW,203,0.0,5.0,87,0.00,,,0.00,VWS V13.01,2013-01-10 02:54:00,
2013-01-09 21:59:00,35.9,32.4,30.23,SW,214,0.0,5.0,87,0.00,,,0.00,VWS V13.01,2013-01-10 02:59:00,
2013-01-09 22:04:00,35.8,32.3,30.23,SW,214,0.0,0.0,87,0.00,,,0.00,VWS V13.01,2013-01-10 03:04:00,
2013-01-09 22:09:00,35.8,32.3,30.23,SW,214,0.0,2.0,87,0.00,,,0.00,VWS V13.01,2013-01-10 03:09:00,
2013-01-09 22:14:00,35.7,31.9,30.23,South,190,0.0,4.0,86,0.00,,,0.00,VWS V13.01,2013-01-10 03:14:00,
2013-01-09 22:19:00,35.4,31.6,30.23,South,190,0.0,4.0,86,0.00,,,0.00,VWS V13.01,2013-01-10 03:19:00,
2013-01-09 22:24:00,35.2,31.4,30.24,South,190,0.0,4.0,86,0.00,,,0.00,VWS V13.01,2013-01-10 03:24:00,
2013-01-09 22:29:00,35.0,31.2,30.24,South,189,0.0,4.0,86,0.00,,,0.00,VWS V13.01,2013-01-10 03:29:00,
2013-01-09 22:34:00,34.8,31.0,30.24,South,188,0.0,0.0,86,0.00,,,0.00,VWS V13.01,2013-01-10 03:34:00,
2013-01-09 22:39:00,34.4,30.6,30.24,South,190,0.0,0.0,86,0.00,,,0.00,VWS V13.01,2013-01-10 03:39:00,
2013-01-09 22:44:00,34.1,30.4,30.25,South,190,0.0,0.0,86,0.00,,,0.00,VWS V13.01,2013-01-10 03:44:00,
2013-01-09 22:49:00,33.7,30.0,30.25,South,190,0.0,0.0,86,0.00,,,0.00,VWS V13.01,2013-01-10 03:49:00,
2013-01-09 22:54:00,33.5,29.8,30.26,South,191,0.0,0.0,86,0.00,,,0.00,VWS V13.01,2013-01-10 03:54:00,
2013-01-09 22:59:00,33.1,29.4,30.26,South,191,0.0,1.0,86,0.00,,,0.00,VWS V13.01,2013-01-10 03:59:00,
2013-01-09 23:04:00,32.8,29.4,30.27,South,191,0.0,0.0,87,0.00,,CLR,0.00,VWS V13.01,2013-01-10 04:04:00,
2013-01-09 23:09:00,32.5,29.1,30.26,South,191,0.0,2.0,87,0.00,,CLR,0.00,VWS V13.01,2013-01-10 04:09:00,
2013-01-09 23:14:00,32.4,29.0,30.27,South,191,0.0,2.0,87,0.00,,CLR,0.00,VWS V13.01,2013-01-10 04:14:00,
2013-01-09 23:19:00,32.4,29.2,30.27,SSW,194,1.0,2.0,88,0.00,,CLR,0.00,VWS V13.01,2013-01-10 04:19:00,
2013-01-09 23:24:00,32.8,29.6,30.27,SW,223,0.0,4.0,88,0.00,,CLR,0.00,VWS V13.01,2013-01-10 04:24:00,
2013-01-09 23:29:00,33.1,29.7,30.27,South,185,1.0,4.0,87,0.00,,CLR,0.00,VWS V13.01,2013-01-10 04:29:00,
2013-01-09 23:34:00,33.5,29.8,30.27,SW,219,0.0,4.0,86,0.00,,CLR,0.00,VWS V13.01,2013-01-10 04:34:00,
2013-01-09 23:39:00,34.0,30.0,30.28,SW,219,0.0,4.0,85,0.00,,CLR,0.00,VWS V13.01,2013-01-10 04:39:00,
2013-01-09 23:44:00,34.2,29.9,30.28,SSW,207,3.0,4.0,84,0.00,,CLR,0.00,VWS V13.01,2013-01-10 04:44:00,
2013-01-09 23:49:00,34.7,29.8,30.28,SSW,213,2.0,4.0,82,0.00,,CLR,0.00,VWS V13.01,2013-01-10 04:49:00,
2013-01-09 23:54:00,35.2,29.7,30.28,SSW,208,3.0,5.0,80,0.00,,CLR,0.00,VWS V13.01,2013-01-10 04:54:00,
2013-01-09 23:59:00,36.0,29.5,30.28,SSW,200,2.0,6.0,77,0.00,,CLR,0.00,VWS V13.01,2013-01-10 04:59:00,